Flight Track Log - Related Links

Times and Time Zones

All times are in EDT time to prevent confusion due to time zone crossing. See the UAL4305 flight status page for this flight to view local times or setup timezone preferences in your user account.


Time Position Orientation Groundspeed Altitude Reporting Facility
EDT Latitude Longitude Course Direction KTS MPH feet Rate Location/Type
Wed 12:26:06 PM 39.3381 -94.7136 84° East 155 178 35,000  Level Kansas City Center
Wed 12:27:07 PM 39.3944 -94.6744 28° Northeast 254 292 3,500 -14,557 Descending Kansas City Center
Wed 12:28:00 PM 39.3329 -94.3322 80° East  Level FlightAware Approximate
Wed 12:28:08 PM 39.4439 -94.5778 56° Northeast 295 339 5,400  Level Kansas City Center
Wed 12:29:00 PM 39.3526 -94.1876 80° East  Level FlightAware Approximate
Wed 12:29:12 PM 39.4867 -94.4825 60° Northeast 315 362 7,800  Level Kansas City Center
Wed 12:30:00 PM 39.3712 -94.0427 82° East  Level FlightAware Approximate
Wed 12:30:14 PM 39.5372 -94.3700 60° Northeast 324 373 10,300  Level Kansas City Center
Wed 12:31:00 PM 39.3862 -93.8971 84° East  Level FlightAware Approximate
Wed 12:31:14 PM 39.5897 -94.2678 56° Northeast 356 410 11,600  Level Kansas City Center
Wed 12:32:15 PM 39.6458 -94.1572 57° Northeast 382 440 12,900 1,113 Climbing Kansas City Center
Wed 12:33:18 PM 39.7347 -94.0486 43° Northeast 416 479 13,900 532 Climbing Kansas City Center
Wed 12:34:19 PM 39.8497 -94.0008 18° North 430 495 14,000 934 Climbing Kansas City Center
Wed 12:35:20 PM 39.9494 -93.9161 33° Northeast 429 494 15,800 1,805 Climbing Kansas City Center
Wed 12:36:22 PM 40.0161 -93.7917 55° Northeast 419 482 17,700 1,824 Climbing Kansas City Center
Wed 12:37:25 PM 40.0689 -93.6625 62° Northeast 410 472 19,600 1,561 Climbing Kansas City Center
Wed 12:38:25 PM 40.1181 -93.5253 65° Northeast 416 479 20,900 1,306 Climbing Kansas City Center
Wed 12:39:29 PM 40.1678 -93.3469 70° East 435 501 22,300 1,258 Climbing Kansas City Center
Wed 12:40:29 PM 40.2092 -93.1958 70° East 442 509 23,500 1,152 Climbing Kansas City Center
Wed 12:41:34 PM 40.2533 -93.0447 69° East 446 513 24,700 1,200 Climbing Kansas City Center
Wed 12:42:34 PM 40.3008 -92.8806 69° East 448 516 26,000 1,190 Climbing Kansas City Center
Wed 12:43:35 PM 40.3364 -92.7317 73° East 449 517 27,100 1,073 Climbing Kansas City Center
Wed 12:44:37 PM 40.3731 -92.5653 74° East 451 519 28,200 1,024 Climbing Kansas City Center
Wed 12:45:38 PM 40.3525 -92.4078 100° East 439 505 29,200 952 Climbing Kansas City Center
Wed 12:46:43 PM 40.3261 -92.2569 103° East 431 496 30,200 1,056 Climbing Kansas City Center
Wed 12:47:43 PM 40.2942 -92.0750 103° East 430 495 31,400 1,091 Climbing Kansas City Center
Wed 12:48:44 PM 40.2667 -91.9256 104° East 426 490 32,400 968 Climbing Kansas City Center
Wed 12:49:47 PM 40.2394 -91.7753 103° East 426 490 33,400 960 Climbing Kansas City Center
Wed 12:50:49 PM 40.2125 -91.6272 103° East 424 488 34,400 829 Climbing Kansas City Center
Wed 12:51:50 PM 40.1847 -91.4789 104° East 422 486 35,100 864 Climbing Kansas City Center
Wed 12:52:54 PM 40.1575 -91.3317 104° East 421 484 36,200 919 Climbing Kansas City Center
Wed 12:53:54 PM 40.1269 -91.1639 103° East 405 466 37,000 397 Climbing Kansas City Center
Wed 12:54:55 PM 40.1006 -91.0197 103° East 407 468 37,000  Level Kansas City Center
Wed 12:55:59 PM 40.0706 -90.8614 104° East 424 488 37,000  Level Kansas City Center
Wed 12:57:00 PM 40.0406 -90.7061 104° East 438 504 37,000  Level Kansas City Center
Wed 12:58:00 PM 40.0103 -90.5483 104° East 447 514 37,000  Level Kansas City Center
Wed 12:59:04 PM 39.9797 -90.3858 104° East 457 526 37,000  Level Kansas City Center
Wed 01:00:05 PM 39.9469 -90.2181 104° East 470 541 37,000  Level Kansas City Center
Wed 01:01:06 PM 39.9072 -90.0169 104° East 478 550 37,000  Level Kansas City Center
Wed 01:02:11 PM 39.8731 -89.8506 105° East 479 551 37,000  Level Kansas City Center
Wed 01:03:11 PM 39.8419 -89.6847 104° East 478 550 37,000  Level Kansas City Center
Wed 01:04:12 PM 39.8411 -89.5172 90° East 466 536 37,000  Level Kansas City Center
Wed 01:05:16 PM 39.8411 -89.3506 90° East 463 533 37,000  Level Kansas City Center
Wed 01:06:17 PM 39.8422 -89.1581 90° East 452 520 37,000  Level Kansas City Center
Wed 01:07:21 PM 39.8417 -89.0042 90° East 435 501 37,000  Level Kansas City Center
Wed 01:08:23 PM 39.8417 -88.8506 90° East 428 493 37,000  Level Kansas City Center
Wed 01:09:24 PM 39.8419 -88.6931 90° East 433 498 37,000  Level Kansas City Center
Wed 01:10:25 PM 39.8419 -88.5331 90° East 441 507 37,000  Level Kansas City Center
Wed 01:11:28 PM 39.8422 -88.3703 90° East 447 514 37,000  Level Kansas City Center
Wed 01:12:29 PM 39.8408 -88.1839 90° East 454 522 37,000  Level Kansas City Center
Wed 01:13:32 PM 39.8397 -88.0117 90° East 465 535 37,000  Level Kansas City Center
Wed 01:14:34 PM 39.8394 -87.8383 90° East 473 544 37,000  Level Kansas City Center
Wed 01:15:35 PM 39.8358 -87.6644 91° East 477 549 37,000  Level Kansas City Center
Wed 01:16:43 PM 39.8325 -87.4583 91° East 478 550 37,000  Level Indianapolis Center
Wed 01:17:44 PM 39.8303 -87.2861 91° East 475 547 37,000  Level Indianapolis Center
Wed 01:18:46 PM 39.8278 -87.1158 91° East 471 542 37,000  Level Indianapolis Center
Wed 01:19:48 PM 39.8253 -86.9486 91° East 464 534 37,000  Level Indianapolis Center
Wed 01:20:50 PM 39.8219 -86.7789 91° East 465 535 37,000  Level Indianapolis Center
Wed 01:21:52 PM 39.8189 -86.5728 91° East 471 542 37,000  Level Indianapolis Center
Wed 01:22:53 PM 39.8150 -86.3986 92° East 477 549 37,000  Level Indianapolis Center
Wed 01:23:55 PM 39.8442 -86.2281 77° East 483 556 37,000  Level Indianapolis Center
Wed 01:24:57 PM 39.8794 -86.0592 75° East 482 555 37,000  Level Indianapolis Center
Wed 01:25:59 PM 39.9161 -85.8906 74° East 483 556 37,000  Level Indianapolis Center
Wed 01:27:00 PM 39.9511 -85.7192 75° East 485 558 37,000  Level Indianapolis Center
Wed 01:28:02 PM 39.9864 -85.5475 75° East 486 559 37,000  Level Indianapolis Center
Wed 01:29:04 PM 40.0228 -85.3753 75° East 488 562 37,000  Level Indianapolis Center
Wed 01:30:06 PM 40.0647 -85.1736 75° East 491 565 37,000  Level Indianapolis Center
Wed 01:31:07 PM 40.1000 -85.0022 75° East 487 560 37,000  Level Indianapolis Center
Wed 01:32:09 PM 40.1344 -84.8319 75° East 482 555 37,000  Level Indianapolis Center
Wed 01:33:11 PM 40.1678 -84.6619 76° East 479 551 37,000  Level Indianapolis Center
Wed 01:34:12 PM 40.2003 -84.4931 76° East 476 548 37,000  Level Indianapolis Center
Wed 01:35:14 PM 40.2350 -84.3239 75° East 477 549 37,000  Level Indianapolis Center
Wed 01:36:16 PM 40.2950 -84.1717 63° Northeast 467 537 37,000  Level Indianapolis Center
Wed 01:37:18 PM 40.3608 -84.0219 60° Northeast 468 539 37,000  Level Indianapolis Center
Wed 01:38:19 PM 40.4272 -83.8722 60° Northeast 468 539 37,000  Level Indianapolis Center
Wed 01:39:21 PM 40.4942 -83.7189 60° Northeast 475 547 37,000  Level Indianapolis Center
Wed 01:40:23 PM 40.5611 -83.5658 60° Northeast 478 550 37,000  Level Indianapolis Center
Wed 01:41:24 PM 40.6286 -83.4114 60° Northeast 479 551 37,000  Level Indianapolis Center
Wed 01:42:26 PM 40.7067 -83.2322 60° Northeast 479 551 37,000  Level Indianapolis Center
Wed 01:43:28 PM 40.7700 -83.0858 60° Northeast 481 554 37,000  Level Indianapolis Center
Wed 01:44:30 PM 40.8364 -82.9297 61° Northeast 484 557 37,000  Level Indianapolis Center
Wed 01:45:31 PM 40.9031 -82.7722 61° Northeast 486 559 37,000  Level Indianapolis Center
Wed 01:46:33 PM 40.9706 -82.6150 60° Northeast 487 560 37,000  Level Indianapolis Center
Wed 01:47:35 PM 41.0378 -82.4558 61° Northeast 489 563 37,000  Level Indianapolis Center
Wed 01:48:37 PM 41.1150 -82.2708 61° Northeast 488 562 37,000  Level Indianapolis Center
Wed 01:49:38 PM 41.1806 -82.1114 61° Northeast 482 555 37,000  Level Cleveland Center
Wed 01:50:39 PM 41.2428 -81.9667 60° Northeast 491 565 37,000  Level Cleveland Center
Wed 01:51:38 PM 41.3092 -81.8078 61° Northeast 491 565 37,000  Level Cleveland Center
Wed 01:52:38 PM 41.3756 -81.6483 61° Northeast 492 566 37,000  Level Cleveland Center
Wed 01:53:38 PM 41.4311 -81.4831 66° East 470 541 37,000  Level Cleveland Center
Wed 01:54:38 PM 41.4386 -81.3144 87° East 440 506 37,000  Level Cleveland Center
Wed 01:55:38 PM 41.4417 -81.1428 89° East 454 522 37,000  Level Cleveland Center
Wed 01:56:38 PM 41.4486 -80.9600 87° East 476 548 37,000  Level Cleveland Center
Wed 01:57:38 PM 41.4553 -80.7769 87° East 489 563 37,000  Level Cleveland Center
Wed 01:58:38 PM 41.4617 -80.5886 87° East 501 577 37,000  Level Cleveland Center
Wed 01:59:39 PM 41.4658 -80.4003 88° East 501 577 37,000  Level Cleveland Center
Wed 02:00:38 PM 41.4736 -80.2283 86° East 506 582 37,000  Level Cleveland Center
Wed 02:01:38 PM 41.4792 -80.0400 88° East 511 588 37,000  Level Cleveland Center
Wed 02:02:38 PM 41.4822 -79.8375 89° East 505 581 37,000  Level Cleveland Center
Wed 02:03:38 PM 41.4872 -79.6489 88° East 505 581 37,000  Level Cleveland Center
Wed 02:04:38 PM 41.4917 -79.4633 88° East 505 581 37,000  Level Cleveland Center
Wed 02:05:38 PM 41.4961 -79.2775 88° East 500 575 37,000 -367 Level Cleveland Center
Wed 02:07:38 PM 41.5017 -78.9003 89° East 500 575 35,900 -862 Descending Cleveland Center
Wed 02:08:39 PM 41.5050 -78.7144 89° East 495 570 34,400 -1,550 Descending Cleveland Center
Wed 02:09:38 PM 41.5081 -78.5258 89° East 495 570 32,800 -1,462 Descending Cleveland Center
Wed 02:10:38 PM 41.5106 -78.3314 89° East 500 575 31,500 -900 Descending Cleveland Center
Wed 02:11:38 PM 41.5108 -78.1456 90° East 505 581 31,000  Descending Cleveland Center
Wed 02:12:46 PM 41.5081 -77.9572 91° East 512 589 31,500  Climbing New York Center
Wed 02:13:47 PM 41.4842 -77.7664 99° East 519 597 31,000 -248 Descending New York Center
Wed 02:14:47 PM 41.4628 -77.5592 98° East 519 597 31,000  Level New York Center
Wed 02:15:47 PM 41.4253 -77.3756 105° East 514 592 31,000  Level New York Center
Wed 02:16:47 PM 41.3978 -77.1931 101° East 514 592 31,000  Level New York Center
Wed 02:17:47 PM 41.3722 -77.0081 100° East 509 586 31,000 -1,041 Level New York Center
Wed 02:18:48 PM 41.3442 -76.8231 101° East 509 586 28,900 -2,213 Descending New York Center
Wed 02:19:49 PM 41.3011 -76.6422 108° East 515 593 26,500 -2,550 Descending New York Center
Wed 02:20:48 PM 41.2533 -76.4697 110° East 508 585 23,800 -2,773 Descending New York Center
Wed 02:21:48 PM 41.2144 -76.3231 109° East 483 556 21,000 -2,695 Descending New York Center
Wed 02:22:46 PM 41.1719 -76.1597 109° East 450 518 18,500 -1,525 Descending New York Center
Wed 02:23:46 PM 41.1381 -76.0331 110° East 418 481 18,000 -1,537 Descending New York Center
Wed 02:24:47 PM 41.0950 -75.8756 110° East 413 475 15,400 -2,231 Descending New York Center
Wed 02:25:47 PM 41.0550 -75.7378 111° Southeast 413 475 13,500 -1,190 Descending New York Center
Wed 02:26:48 PM 41.0189 -75.6031 110° East 401 461 13,000 -655 Descending New York Center
Wed 02:27:46 PM 40.9844 -75.4769 110° East 380 437 12,200 -1,300 Descending New York Center
Wed 02:28:48 PM 40.9536 -75.3647 110° East 335 386 10,400 -1,750 Descending New York Center
Wed 02:29:46 PM 40.9222 -75.2583 111° Southeast 319 367 8,700 -1,550 Descending New York Center
Wed 02:30:48 PM 40.8928 -75.1547 111° Southeast 309 356 7,300 -885 Descending New York Center
Wed 02:31:48 PM 40.8631 -75.0514 111° Southeast 304 350 6,900 -200 Descending New York Center
Wed 02:32:48 PM 40.8372 -74.9592 110° East 299 344 6,900 -305 Level New York Center
Wed 02:33:46 PM 40.7992 -74.8583 116° Southeast 299 344 6,300 -454 Descending New York Center
Wed 02:34:47 PM 40.7461 -74.7619 126° Southeast 299 344 6,000 -148 Descending New York Center
Wed 02:35:48 PM 40.7008 -74.6853 128° Southeast 299 344 6,000 -202 Level New York Center
Wed 02:36:46 PM 40.6392 -74.5972 133° Southeast 299 344 5,600 -661 Descending New York Center
Wed 02:37:46 PM 40.5667 -74.5333 146° Southeast 285 328 4,700 -952 Descending New York TRACON
Wed 02:38:52 PM 40.5000 -74.4667 143° Southeast 261 300 3,600 -762 Descending New York TRACON
Wed 02:39:52 PM 40.4667 -74.4000 123° Southeast 224 258 3,100 -250 Descending New York TRACON
Wed 02:40:52 PM 40.4667 -74.3333 90° East 215 247 3,100  Level New York TRACON
Wed 02:41:53 PM 40.5167 -74.2833 37° Northeast 191 220 3,100 -149 Level New York TRACON
Wed 02:42:53 PM 40.5667 -74.2500 27° Northeast 190 219 2,800 -579 Descending New York TRACON
Wed 02:43:47 PM 40.6000 -74.2333 21° North 182 209 2,000 -889 Descending New York TRACON

Login

Don't have an account? Register now (free) for customized features, flight alerts, and more!